Time;durP1;ratioP1;P1;durP2;ratioP2;P2;SDS_P1;SDS_P2;PMS_P1;PMS_P2;Temp;Humidity;BMP_temperature;BMP_pressure;BME280_temperature;BME280_humidity;BME280_pressure;Samples;Min_cycle;Max_cycle;Signal;HPM_P1;HPM_P2
2023/12/12 00:01:55;;;;;;;5.68;2.38;;;6.60;99.90;;;;;;4967774;28;20120;-88
2023/12/12 00:04:20;;;;;;;7.22;2.47;;;6.70;99.90;;;;;;4994265;28;20034;-89
2023/12/12 00:06:46;;;;;;;7.18;3.15;;;6.60;99.90;;;;;;4995417;28;20548;-89
2023/12/12 00:09:12;;;;;;;10.27;3.00;;;6.40;99.90;;;;;;4975078;28;20046;-89
2023/12/12 00:11:37;;;;;;;9.63;2.85;;;6.50;99.90;;;;;;4986856;28;20568;-88
2023/12/12 00:14:03;;;;;;;6.38;2.70;;;6.40;99.90;;;;;;4963021;28;20192;-89
2023/12/12 00:16:29;;;;;;;6.85;2.55;;;6.30;99.90;;;;;;4979100;28;20039;-89
2023/12/12 00:18:54;;;;;;;8.45;2.85;;;6.20;99.90;;;;;;4958114;28;20488;-89
2023/12/12 00:21:20;;;;;;;7.50;2.63;;;6.20;99.90;;;;;;4968077;28;20170;-89
2023/12/12 00:23:46;;;;;;;6.90;2.47;;;6.20;99.90;;;;;;4966538;28;20122;-89
2023/12/12 00:26:12;;;;;;;7.90;2.60;;;6.10;99.90;;;;;;4966944;28;20073;-89
2023/12/12 00:28:38;;;;;;;7.95;2.95;;;5.90;99.90;;;;;;4976574;28;20071;-89
2023/12/12 00:31:04;;;;;;;7.85;2.78;;;6.10;99.90;;;;;;4965874;28;20111;-89
2023/12/12 00:33:30;;;;;;;8.55;3.10;;;5.90;99.90;;;;;;4968092;28;20129;-89
2023/12/12 00:35:57;;;;;;;8.52;2.90;;;5.90;99.90;;;;;;4976847;28;20034;-88
2023/12/12 00:38:28;;;;;;;8.95;2.95;;;5.70;99.90;;;;;;4975561;28;20054;-89
2023/12/12 00:40:54;;;;;;;7.05;2.60;;;5.80;99.90;;;;;;4965403;28;20038;-89
2023/12/12 00:43:20;;;;;;;7.22;2.60;;;5.70;99.90;;;;;;4966858;28;20072;-89
2023/12/12 00:45:46;;;;;;;7.18;2.85;;;5.70;99.90;;;;;;4965790;28;20049;-89
2023/12/12 00:48:11;;;;;;;8.30;2.60;;;5.50;99.90;;;;;;4963687;28;20092;-89
2023/12/12 00:50:37;;;;;;;9.80;3.05;;;5.50;99.90;;;;;;4974036;28;20082;-88
2023/12/12 00:53:03;;;;;;;8.90;2.50;;;5.40;99.90;;;;;;4959925;28;20050;-89
2023/12/12 00:55:29;;;;;;;9.50;2.80;;;5.40;99.90;;;;;;4993136;28;20070;-89
2023/12/12 00:57:57;;;;;;;8.50;3.20;;;5.50;99.90;;;;;;4989755;28;20042;-89
2023/12/12 01:00:23;;;;;;;5.57;3.00;;;5.40;99.90;;;;;;4995545;28;20467;-89
2023/12/12 01:02:49;;;;;;;6.00;3.17;;;5.50;99.90;;;;;;4989968;28;20042;-88
2023/12/12 01:05:15;;;;;;;5.82;2.95;;;5.30;99.90;;;;;;4966035;28;20050;-89
2023/12/12 01:07:41;;;;;;;8.07;3.20;;;5.10;99.90;;;;;;4975000;28;20391;-89
2023/12/12 01:10:07;;;;;;;6.93;2.65;;;5.10;99.90;;;;;;4980338;28;20051;-88
2023/12/12 01:12:33;;;;;;;8.18;2.75;;;5.00;99.90;;;;;;4962647;28;20038;-89
2023/12/12 01:15:02;;;;;;;8.13;3.05;;;5.00;99.90;;;;;;4993489;28;20053;-88
2023/12/12 01:17:29;;;;;;;6.95;2.95;;;5.20;99.90;;;;;;4983537;28;20050;-89
2023/12/12 01:19:55;;;;;;;9.95;3.45;;;5.00;99.90;;;;;;4973084;28;20499;-89
2023/12/12 01:22:20;;;;;;;9.82;3.00;;;5.20;99.90;;;;;;4969093;28;20107;-89
2023/12/12 01:24:46;;;;;;;7.80;3.33;;;4.90;99.90;;;;;;4991381;28;20046;-89
2023/12/12 01:27:12;;;;;;;5.65;2.75;;;5.00;99.90;;;;;;4956789;28;20065;-89
2023/12/12 01:29:38;;;;;;;8.32;3.17;;;4.90;99.90;;;;;;4969625;28;20038;-89
2023/12/12 01:32:04;;;;;;;6.50;2.78;;;4.80;99.90;;;;;;4994143;28;20391;-89
2023/12/12 01:34:30;;;;;;;7.97;3.15;;;4.90;99.90;;;;;;4982748;28;20046;-89
2023/12/12 01:36:56;;;;;;;7.32;3.20;;;4.90;99.90;;;;;;4968132;28;20390;-88
2023/12/12 01:39:22;;;;;;;9.48;2.90;;;4.70;99.90;;;;;;4969110;28;20108;-89
2023/12/12 01:41:51;;;;;;;7.38;2.65;;;4.60;99.90;;;;;;4966367;28;20039;-89
2023/12/12 01:44:17;;;;;;;5.95;2.60;;;4.80;99.90;;;;;;4987687;28;20434;-89
2023/12/12 01:46:47;;;;;;;7.10;3.00;;;4.60;99.90;;;;;;4969074;28;20104;-87
2023/12/12 01:49:14;;;;;;;10.15;3.35;;;4.70;99.90;;;;;;4981789;28;20134;-89
2023/12/12 01:51:40;;;;;;;8.55;2.85;;;4.60;99.90;;;;;;4981136;28;20417;-89
2023/12/12 01:54:06;;;;;;;11.95;2.83;;;4.60;99.90;;;;;;4966219;28;20097;-89
2023/12/12 01:56:34;;;;;;;8.35;2.88;;;4.40;99.90;;;;;;4963437;28;20034;-88
2023/12/12 01:59:01;;;;;;;6.07;2.92;;;4.40;99.90;;;;;;4965406;28;20534;-89
2023/12/12 02:01:27;;;;;;;8.68;3.60;;;4.60;99.90;;;;;;4956509;28;20136;-89
2023/12/12 02:03:56;;;;;;;8.57;3.05;;;4.40;99.90;;;;;;4993252;28;20220;-89
2023/12/12 02:06:25;;;;;;;10.55;3.15;;;4.40;99.90;;;;;;4991690;28;20066;-89
2023/12/12 02:08:52;;;;;;;14.85;3.15;;;4.50;99.90;;;;;;4965806;28;20042;-89
2023/12/12 02:11:18;;;;;;;5.45;3.13;;;4.50;99.90;;;;;;4996212;28;20113;-89
2023/12/12 02:13:44;;;;;;;11.27;3.03;;;4.30;99.90;;;;;;4982083;28;20053;-89
2023/12/12 02:16:12;;;;;;;11.95;3.42;;;4.30;99.90;;;;;;4969096;28;20109;-88
2023/12/12 02:18:37;;;;;;;8.90;3.53;;;4.40;99.90;;;;;;4968951;28;20049;-89
2023/12/12 02:21:03;;;;;;;6.68;3.00;;;4.30;99.90;;;;;;4998171;28;20100;-89
2023/12/12 02:23:33;;;;;;;8.70;2.92;;;4.50;99.90;;;;;;4978520;28;20137;-89
2023/12/12 02:25:59;;;;;;;7.07;3.10;;;4.10;99.90;;;;;;4992159;28;20404;-89
2023/12/12 02:28:26;;;;;;;14.05;3.20;;;4.30;99.90;;;;;;4965270;28;20097;-89
2023/12/12 02:30:52;;;;;;;8.00;2.90;;;4.30;99.90;;;;;;4977384;28;20104;-89
2023/12/12 02:33:18;;;;;;;8.45;3.10;;;4.20;99.90;;;;;;4960624;28;20454;-89
2023/12/12 02:35:43;;;;;;;9.85;3.25;;;4.10;99.90;;;;;;4978617;28;20050;-89
2023/12/12 02:38:09;;;;;;;6.65;2.97;;;4.30;99.90;;;;;;4991019;28;20137;-88
2023/12/12 02:40:35;;;;;;;5.57;2.58;;;4.20;99.90;;;;;;4961611;28;20050;-89
2023/12/12 02:43:01;;;;;;;7.55;3.00;;;4.00;99.90;;;;;;5009151;28;20043;-89
2023/12/12 02:45:26;;;;;;;11.05;2.63;;;4.30;99.90;;;;;;4959710;28;20410;-89
2023/12/12 02:47:52;;;;;;;7.88;2.85;;;4.00;99.90;;;;;;5011023;28;20143;-90
2023/12/12 02:50:18;;;;;;;4.68;2.38;;;4.00;99.90;;;;;;4977778;28;20034;-90
2023/12/12 02:52:44;;;;;;;9.60;2.92;;;4.20;99.90;;;;;;4998329;28;20048;-90
2023/12/12 02:55:10;;;;;;;9.00;2.90;;;3.80;99.90;;;;;;4975992;28;20106;-89
2023/12/12 02:57:36;;;;;;;7.18;2.88;;;4.10;99.90;;;;;;4974703;28;20418;-89
2023/12/12 03:00:03;;;;;;;9.10;2.70;;;3.90;99.90;;;;;;4966657;28;20117;-89
2023/12/12 03:02:29;;;;;;;6.05;2.80;;;3.90;99.90;;;;;;4973595;28;20057;-89
2023/12/12 03:04:54;;;;;;;11.75;2.78;;;3.80;99.90;;;;;;4959588;28;20042;-89
2023/12/12 03:07:20;;;;;;;16.85;4.47;;;3.80;99.90;;;;;;4965653;28;20136;-90
2023/12/12 03:09:46;;;;;;;8.15;2.88;;;3.80;99.90;;;;;;4996942;28;20498;-90
2023/12/12 03:12:11;;;;;;;5.72;2.85;;;3.90;99.90;;;;;;4972608;28;20042;-90
2023/12/12 03:14:37;;;;;;;8.20;2.70;;;3.80;99.90;;;;;;4969558;28;20127;-89
2023/12/12 03:17:03;;;;;;;8.07;2.70;;;3.40;99.90;;;;;;4965186;28;20170;-89
2023/12/12 03:19:29;;;;;;;10.02;3.00;;;3.50;99.90;;;;;;4979856;28;20074;-89
2023/12/12 03:21:56;;;;;;;12.77;3.30;;;3.50;99.90;;;;;;4979383;28;20038;-89
2023/12/12 03:24:21;;;;;;;5.53;2.92;;;3.60;99.90;;;;;;4974869;28;20069;-89
2023/12/12 03:26:47;;;;;;;8.25;3.30;;;3.60;99.90;;;;;;4964847;28;20452;-82
2023/12/12 03:29:13;;;;;;;8.13;2.58;;;3.70;99.90;;;;;;4974642;28;20320;-82
2023/12/12 03:31:39;;;;;;;6.30;2.78;;;3.60;99.90;;;;;;4977015;28;20042;-82
2023/12/12 03:34:05;;;;;;;10.18;2.80;;;3.50;99.90;;;;;;4975760;28;20046;-82
2023/12/12 03:36:31;;;;;;;8.68;2.42;;;3.40;99.90;;;;;;4962955;28;20045;-82
2023/12/12 03:38:57;;;;;;;6.03;2.58;;;3.40;99.90;;;;;;4963140;28;20042;-82
2023/12/12 03:41:25;;;;;;;10.90;2.90;;;3.20;99.90;;;;;;4974184;28;20784;-82
2023/12/12 03:43:51;;;;;;;7.57;2.28;;;3.20;99.90;;;;;;4956842;28;20054;-82
2023/12/12 03:46:18;;;;;;;6.63;2.63;;;3.30;99.90;;;;;;4974241;28;20355;-82
2023/12/12 03:48:44;;;;;;;5.93;2.78;;;3.50;99.90;;;;;;4971772;28;20050;-82
2023/12/12 03:51:10;;;;;;;11.95;3.70;;;3.30;99.90;;;;;;4986515;28;20659;-82
2023/12/12 03:53:36;;;;;;;6.78;2.72;;;3.40;99.90;;;;;;4991171;28;20050;-82
2023/12/12 03:56:03;;;;;;;7.45;2.67;;;3.30;99.90;;;;;;4970636;28;20042;-82
2023/12/12 03:58:29;;;;;;;10.35;3.20;;;3.30;99.90;;;;;;4973108;28;20047;-82
2023/12/12 04:00:55;;;;;;;6.70;2.85;;;3.30;99.90;;;;;;4971365;28;20043;-81
2023/12/12 04:03:21;;;;;;;8.73;3.30;;;3.20;99.90;;;;;;4986021;28;20070;-82
2023/12/12 04:05:47;;;;;;;10.00;3.60;;;3.20;99.90;;;;;;4962113;28;20146;-82
2023/12/12 04:08:12;;;;;;;9.05;3.30;;;3.40;99.90;;;;;;5006644;28;20050;-82
2023/12/12 04:10:38;;;;;;;9.45;3.47;;;3.40;99.90;;;;;;4962950;28;20052;-82
2023/12/12 04:13:03;;;;;;;9.02;3.80;;;3.30;99.90;;;;;;4959962;28;20043;-82
2023/12/12 04:15:29;;;;;;;11.82;3.63;;;3.30;99.90;;;;;;4961624;28;20069;-82
2023/12/12 04:17:55;;;;;;;8.90;3.78;;;3.40;99.90;;;;;;4985982;28;20077;-82
2023/12/12 04:20:21;;;;;;;9.52;4.30;;;3.40;99.90;;;;;;4963058;28;20089;-82
2023/12/12 04:22:46;;;;;;;17.92;4.95;;;3.20;99.90;;;;;;4961509;28;20058;-82
2023/12/12 04:25:13;;;;;;;12.50;4.05;;;3.30;99.90;;;;;;4961058;28;20034;-82
2023/12/12 04:27:38;;;;;;;16.95;4.50;;;3.20;99.90;;;;;;5004821;28;20050;-82
2023/12/12 04:30:05;;;;;;;10.50;4.15;;;3.30;99.90;;;;;;4991636;28;20034;-82
2023/12/12 04:32:31;;;;;;;11.00;4.80;;;3.20;99.90;;;;;;4978312;28;20499;-82
2023/12/12 04:34:58;;;;;;;10.88;4.45;;;3.40;99.90;;;;;;4974753;28;20061;-82
2023/12/12 04:37:24;;;;;;;11.40;4.85;;;3.30;99.90;;;;;;4963919;28;20358;-82
2023/12/12 04:39:50;;;;;;;22.27;6.00;;;3.50;99.90;;;;;;4964127;28;20057;-82
2023/12/12 04:42:16;;;;;;;12.18;4.80;;;3.40;99.90;;;;;;4963568;28;20078;-82
2023/12/12 04:44:42;;;;;;;10.93;4.90;;;3.40;99.90;;;;;;4962260;28;20046;-82
2023/12/12 04:47:08;;;;;;;13.95;4.90;;;3.40;99.90;;;;;;4972257;28;20073;-82
2023/12/12 04:49:35;;;;;;;11.57;5.30;;;3.50;99.90;;;;;;4989334;28;20061;-82
2023/12/12 04:52:01;;;;;;;11.27;6.10;;;3.60;99.90;;;;;;4966638;28;20042;-82
2023/12/12 04:54:27;;;;;;;11.93;5.18;;;3.50;99.90;;;;;;5012130;28;20039;-82
2023/12/12 04:56:53;;;;;;;16.20;5.70;;;3.70;99.90;;;;;;4989514;28;20042;-82
2023/12/12 04:59:19;;;;;;;13.43;5.25;;;3.50;99.90;;;;;;4995110;28;20674;-83
2023/12/12 05:01:44;;;;;;;13.32;6.00;;;3.60;99.90;;;;;;4972741;28;20046;-82
2023/12/12 05:04:11;;;;;;;12.18;5.22;;;3.60;99.90;;;;;;4955882;28;20039;-82
2023/12/12 05:06:36;;;;;;;11.13;5.70;;;3.70;99.90;;;;;;4990280;28;20076;-82
2023/12/12 05:09:03;;;;;;;12.00;5.90;;;3.70;99.90;;;;;;4974333;28;20035;-82
2023/12/12 05:11:29;;;;;;;14.57;5.97;;;3.80;99.90;;;;;;4965494;28;20060;-82
2023/12/12 05:13:56;;;;;;;10.95;5.35;;;3.80;99.90;;;;;;4966992;28;20525;-82
2023/12/12 05:16:22;;;;;;;16.40;5.75;;;3.80;99.90;;;;;;4963688;28;20141;-82
2023/12/12 05:18:48;;;;;;;12.27;5.68;;;3.70;99.90;;;;;;4959975;28;20494;-82
2023/12/12 05:21:14;;;;;;;16.02;6.80;;;3.70;99.90;;;;;;4967030;28;20046;-82
2023/12/12 05:23:41;;;;;;;18.63;6.38;;;3.90;99.90;;;;;;4989585;28;20125;-83
2023/12/12 05:26:07;;;;;;;11.13;5.57;;;3.90;99.90;;;;;;4964940;28;20653;-82
2023/12/12 05:28:33;;;;;;;12.68;5.03;;;3.70;99.90;;;;;;4989182;28;20046;-82
2023/12/12 05:30:59;;;;;;;10.43;5.82;;;3.60;99.90;;;;;;4964082;28;20030;-82
2023/12/12 05:33:25;;;;;;;16.42;6.22;;;3.70;99.90;;;;;;4989259;28;20043;-82
2023/12/12 05:35:51;;;;;;;15.68;6.20;;;3.60;99.90;;;;;;4964398;28;20061;-82
2023/12/12 05:38:17;;;;;;;12.27;6.82;;;3.40;99.90;;;;;;4995786;28;20423;-82
2023/12/12 05:40:42;;;;;;;12.27;6.57;;;3.60;99.90;;;;;;4965724;28;20782;-82
2023/12/12 05:43:09;;;;;;;14.13;6.20;;;3.60;99.90;;;;;;4959461;28;20042;-82
2023/12/12 05:45:35;;;;;;;14.13;7.13;;;3.30;99.90;;;;;;4966679;28;20141;-82
2023/12/12 05:48:03;;;;;;;13.18;6.63;;;3.30;99.90;;;;;;4991339;28;20129;-82
2023/12/12 05:50:29;;;;;;;13.38;7.45;;;3.40;99.90;;;;;;4994035;28;20042;-82
2023/12/12 05:52:56;;;;;;;14.82;7.43;;;3.40;99.90;;;;;;4978215;28;20046;-82
2023/12/12 05:55:21;;;;;;;21.38;8.30;;;3.30;99.90;;;;;;4994767;28;20503;-82
2023/12/12 05:57:50;;;;;;;14.93;7.47;;;3.40;99.90;;;;;;4968695;28;20038;-82
2023/12/12 06:00:16;;;;;;;24.20;8.50;;;3.30;99.90;;;;;;4960710;28;20801;-82
2023/12/12 06:02:42;;;;;;;23.83;9.15;;;3.20;99.90;;;;;;4975543;28;20085;-82
2023/12/12 06:05:08;;;;;;;27.40;9.13;;;3.50;99.90;;;;;;4976405;28;20077;-82
2023/12/12 06:07:34;;;;;;;38.97;10.00;;;3.50;99.90;;;;;;4992398;28;20107;-82
2023/12/12 06:10:00;;;;;;;81.30;14.30;;;3.40;99.90;;;;;;5009455;28;20049;-82
2023/12/12 06:12:26;;;;;;;46.72;10.73;;;3.50;99.90;;;;;;4972714;28;20031;-82
2023/12/12 06:14:51;;;;;;;121.13;16.85;;;3.30;99.90;;;;;;5009266;28;20070;-82
2023/12/12 06:17:17;;;;;;;284.92;29.98;;;3.60;99.90;;;;;;4972921;28;20039;-82
2023/12/12 06:19:43;;;;;;;63.85;13.55;;;3.40;99.90;;;;;;4965903;28;20062;-83
2023/12/12 06:22:08;;;;;;;23.25;11.20;;;3.60;99.90;;;;;;4966275;28;20045;-82
2023/12/12 06:24:34;;;;;;;180.68;23.08;;;3.60;99.90;;;;;;4963389;28;20133;-82
2023/12/12 06:27:00;;;;;;;163.05;21.75;;;3.50;99.90;;;;;;4991085;28;20051;-82
2023/12/12 06:29:26;;;;;;;90.93;18.15;;;3.40;99.90;;;;;;4967504;28;20106;-82
2023/12/12 06:31:51;;;;;;;68.80;14.68;;;3.60;99.90;;;;;;4968616;28;20121;-82
2023/12/12 06:34:17;;;;;;;54.60;13.70;;;3.60;99.90;;;;;;4973808;28;20121;-82
2023/12/12 06:36:43;;;;;;;47.95;14.13;;;3.40;99.90;;;;;;4976071;28;20031;-82
2023/12/12 06:39:10;;;;;;;69.18;16.85;;;3.60;99.90;;;;;;4961840;28;20038;-82
2023/12/12 06:41:36;;;;;;;27.02;12.20;;;3.50;99.90;;;;;;4972647;28;20050;-82
2023/12/12 06:44:02;;;;;;;172.27;26.10;;;3.50;99.90;;;;;;4967103;28;20437;-82
2023/12/12 06:46:28;;;;;;;39.05;14.02;;;3.80;99.90;;;;;;4963732;28;20242;-81
2023/12/12 06:48:54;;;;;;;115.75;20.80;;;3.70;99.90;;;;;;4992921;28;20394;-82
2023/12/12 06:51:20;;;;;;;43.92;16.17;;;3.70;99.90;;;;;;4955283;28;20229;-82
2023/12/12 06:53:45;;;;;;;40.88;13.93;;;3.90;99.90;;;;;;4960432;28;20125;-82
2023/12/12 06:56:11;;;;;;;35.80;13.75;;;3.80;99.90;;;;;;4964496;28;20038;-82
2023/12/12 06:58:37;;;;;;;50.72;13.82;;;3.90;99.90;;;;;;4967786;28;20092;-82
2023/12/12 07:01:03;;;;;;;73.72;17.85;;;4.00;99.90;;;;;;4988629;28;20109;-82
2023/12/12 07:03:29;;;;;;;101.88;18.95;;;3.80;99.90;;;;;;4963175;28;20069;-82
2023/12/12 07:05:54;;;;;;;90.40;17.05;;;4.00;99.90;;;;;;4990430;28;20138;-82
2023/12/12 07:08:21;;;;;;;48.50;15.43;;;3.90;99.90;;;;;;4991532;28;20501;-82
2023/12/12 07:10:49;;;;;;;282.85;29.98;;;4.10;99.90;;;;;;4990881;28;20046;-82
2023/12/12 07:13:15;;;;;;;72.72;17.58;;;4.00;99.90;;;;;;4989527;28;20129;-82
2023/12/12 07:15:41;;;;;;;155.75;19.52;;;4.10;99.90;;;;;;4963794;28;20462;-82
2023/12/12 07:18:10;;;;;;;221.20;23.55;;;4.10;99.90;;;;;;4970979;28;20183;-82
2023/12/12 07:20:39;;;;;;;285.52;30.90;;;4.20;99.90;;;;;;4976675;28;20367;-81
2023/12/12 07:23:05;;;;;;;164.43;23.05;;;4.20;99.90;;;;;;4963644;28;20156;-82
2023/12/12 07:25:31;;;;;;;214.98;27.70;;;4.00;99.90;;;;;;4987173;28;20038;-82
2023/12/12 07:27:57;;;;;;;68.80;17.60;;;4.20;99.90;;;;;;4963923;28;20517;-82
2023/12/12 07:30:23;;;;;;;220.95;28.90;;;4.20;99.90;;;;;;4989648;28;20056;-82
2023/12/12 07:32:48;;;;;;;316.17;38.03;;;4.20;99.90;;;;;;4991051;28;20414;-82
2023/12/12 07:35:16;;;;;;;122.45;19.75;;;4.30;99.90;;;;;;4964343;28;20037;-82
2023/12/12 07:37:42;;;;;;;98.22;19.30;;;4.30;99.90;;;;;;4960752;28;20053;-82
2023/12/12 07:40:08;;;;;;;102.15;19.10;;;4.20;99.90;;;;;;4975586;28;20376;-82
2023/12/12 07:42:34;;;;;;;135.63;23.92;;;4.40;99.90;;;;;;4974654;28;20396;-83
2023/12/12 07:45:01;;;;;;;95.05;19.80;;;4.50;99.90;;;;;;4971849;28;20371;-82
2023/12/12 07:47:27;;;;;;;226.50;32.72;;;4.30;99.90;;;;;;4958360;28;20046;-82
2023/12/12 07:49:54;;;;;;;97.82;20.45;;;4.50;99.90;;;;;;4983574;28;20422;-82
2023/12/12 07:52:20;;;;;;;153.40;26.08;;;4.50;99.90;;;;;;4989486;28;20043;-82
2023/12/12 07:54:45;;;;;;;61.67;19.60;;;4.60;99.90;;;;;;4972063;28;20050;-82
2023/12/12 07:57:11;;;;;;;161.40;28.02;;;4.50;99.90;;;;;;4979421;28;20057;-82
2023/12/12 07:59:37;;;;;;;58.42;17.60;;;4.50;99.90;;;;;;4963986;28;20070;-82
2023/12/12 08:02:03;;;;;;;138.80;23.40;;;4.60;99.90;;;;;;4972044;28;20089;-82
2023/12/12 08:04:28;;;;;;;64.28;18.15;;;4.70;99.90;;;;;;4990371;28;20038;-81
2023/12/12 08:06:54;;;;;;;82.10;21.45;;;4.70;99.90;;;;;;4986731;28;20050;-82
2023/12/12 08:09:20;;;;;;;87.72;22.40;;;4.80;99.90;;;;;;4959629;28;20509;-82
2023/12/12 08:11:46;;;;;;;143.70;26.20;;;4.90;99.90;;;;;;4961743;28;20030;-82
2023/12/12 08:14:12;;;;;;;62.33;18.73;;;4.80;99.90;;;;;;4986309;28;20031;-82
2023/12/12 08:16:37;;;;;;;182.85;29.25;;;4.90;99.90;;;;;;5002948;28;20096;-82
2023/12/12 08:19:03;;;;;;;125.55;24.85;;;4.70;99.90;;;;;;4973469;28;20291;-82
2023/12/12 08:21:29;;;;;;;82.78;22.45;;;5.00;99.90;;;;;;4962402;28;20395;-82
2023/12/12 08:23:55;;;;;;;121.65;26.20;;;4.80;99.90;;;;;;5000838;28;20054;-82
2023/12/12 08:26:24;;;;;;;84.63;23.98;;;5.00;99.90;;;;;;4985676;28;20401;-82
2023/12/12 08:28:50;;;;;;;140.85;26.38;;;5.10;99.90;;;;;;4986064;28;20039;-81
2023/12/12 08:31:15;;;;;;;62.20;19.10;;;5.10;99.90;;;;;;4984099;28;20097;-81
2023/12/12 08:33:42;;;;;;;128.75;27.92;;;5.20;99.90;;;;;;5001857;28;20051;-82
2023/12/12 08:36:10;;;;;;;218.32;33.35;;;5.00;99.90;;;;;;4962284;28;20132;-82
2023/12/12 08:38:36;;;;;;;89.40;27.20;;;5.10;99.90;;;;;;4980723;28;20054;-82
2023/12/12 08:41:03;;;;;;;120.68;26.65;;;5.00;99.90;;;;;;4986280;28;20526;-81
2023/12/12 08:43:28;;;;;;;59.97;21.13;;;5.10;99.90;;;;;;4953205;28;20232;-82
2023/12/12 08:45:55;;;;;;;279.73;36.40;;;5.10;99.90;;;;;;4987153;28;20619;-82
2023/12/12 08:48:23;;;;;;;299.95;39.55;;;5.30;99.90;;;;;;4959182;28;20057;-82
2023/12/12 08:50:50;;;;;;;310.60;39.22;;;5.40;99.90;;;;;;5001408;28;20671;-82
2023/12/12 08:53:16;;;;;;;254.30;35.25;;;5.60;99.90;;;;;;4971081;28;20060;-82
2023/12/12 08:55:42;;;;;;;326.02;41.28;;;5.50;99.90;;;;;;4955785;28;20041;-82
2023/12/12 08:58:08;;;;;;;403.27;50.25;;;5.60;99.90;;;;;;4994006;28;20125;-82
2023/12/12 09:00:34;;;;;;;465.83;49.90;;;5.60;99.90;;;;;;4990372;28;20048;-82
2023/12/12 09:02:59;;;;;;;478.08;55.55;;;5.70;99.90;;;;;;4960688;28;20046;-82
2023/12/12 09:05:25;;;;;;;445.55;50.72;;;5.90;99.90;;;;;;4958013;28;20106;-82
2023/12/12 09:07:51;;;;;;;369.67;41.35;;;5.80;99.90;;;;;;5001757;28;20230;-82
2023/12/12 09:10:17;;;;;;;250.40;34.95;;;6.00;99.90;;;;;;5002358;28;20363;-82
2023/12/12 09:12:43;;;;;;;410.63;52.92;;;6.10;99.90;;;;;;4982729;28;20042;-82
2023/12/12 09:15:09;;;;;;;388.90;50.10;;;6.10;99.90;;;;;;5002896;28;20430;-82
2023/12/12 09:17:35;;;;;;;464.00;53.13;;;6.10;99.90;;;;;;4961365;28;20134;-89
2023/12/12 09:20:02;;;;;;;243.55;38.30;;;6.10;99.90;;;;;;4953775;28;20515;-89
2023/12/12 09:22:27;;;;;;;417.35;55.83;;;6.10;99.90;;;;;;4977254;28;20046;-90
2023/12/12 09:24:54;;;;;;;143.10;28.65;;;6.20;99.90;;;;;;4972720;28;20092;-89
2023/12/12 09:27:20;;;;;;;284.95;41.75;;;6.20;99.90;;;;;;4949532;28;20045;-89
2023/12/12 09:29:46;;;;;;;290.52;43.08;;;6.20;99.90;;;;;;5008155;28;20523;-89
2023/12/12 09:32:12;;;;;;;216.68;39.45;;;6.20;99.90;;;;;;4964219;28;20101;-89
2023/12/12 09:34:38;;;;;;;377.40;51.72;;;6.20;99.90;;;;;;4975059;28;20077;-90
2023/12/12 09:37:04;;;;;;;177.38;34.70;;;6.20;99.90;;;;;;4994996;28;20069;-90
2023/12/12 09:39:30;;;;;;;328.60;44.83;;;6.30;99.90;;;;;;4978569;28;20185;-89
2023/12/12 09:42:00;;;;;;;333.67;48.67;;;6.40;99.90;;;;;;4978094;28;20400;-90
2023/12/12 09:44:32;;;;;;;418.60;56.03;;;6.40;99.90;;;;;;4982273;28;20038;-90
2023/12/12 09:46:59;;;;;;;231.60;38.20;;;6.50;99.90;;;;;;4998467;28;20038;-90
2023/12/12 09:49:27;;;;;;;320.00;49.33;;;6.50;99.90;;;;;;5000206;28;20134;-90
2023/12/12 09:51:54;;;;;;;257.38;37.00;;;6.60;99.90;;;;;;4974153;28;20049;-89
2023/12/12 09:54:21;;;;;;;344.80;45.72;;;6.60;99.90;;;;;;4980046;28;20045;-89
2023/12/12 09:56:48;;;;;;;313.42;42.35;;;6.70;99.90;;;;;;4997585;28;20042;-90
2023/12/12 09:59:14;;;;;;;128.77;26.52;;;6.70;99.90;;;;;;4978282;28;20108;-90
2023/12/12 10:01:44;;;;;;;140.48;26.60;;;6.70;99.90;;;;;;4982215;28;20057;-89
2023/12/12 10:04:11;;;;;;;208.98;34.60;;;6.70;99.90;;;;;;4996971;28;20128;-89
2023/12/12 10:06:42;;;;;;;234.02;33.67;;;6.80;99.90;;;;;;4971289;28;20537;-89
2023/12/12 10:09:11;;;;;;;108.80;25.20;;;6.60;99.90;;;;;;4993394;28;20057;-89
2023/12/12 10:11:37;;;;;;;248.30;36.45;;;6.90;99.90;;;;;;4973107;28;20042;-90
2023/12/12 10:14:03;;;;;;;278.38;36.95;;;6.80;99.90;;;;;;4974745;28;20097;-89
2023/12/12 10:16:31;;;;;;;158.02;28.15;;;7.10;99.90;;;;;;4973314;28;20050;-89
2023/12/12 10:19:01;;;;;;;119.15;27.33;;;6.90;99.90;;;;;;4977891;28;20125;-89
2023/12/12 10:21:28;;;;;;;250.80;35.50;;;6.90;99.90;;;;;;4973550;28;20043;-89
2023/12/12 10:23:54;;;;;;;176.50;33.25;;;6.80;99.90;;;;;;5008748;28;20495;-89
2023/12/12 10:26:31;;;;;;;171.88;29.70;;;7.00;99.90;;;;;;4976917;28;20108;-90
2023/12/12 10:28:58;;;;;;;131.77;29.42;;;7.00;99.90;;;;;;4969142;28;20042;-89
2023/12/12 10:31:25;;;;;;;245.35;38.72;;;7.00;99.90;;;;;;4968185;28;20062;-89
2023/12/12 10:33:51;;;;;;;270.65;36.17;;;7.20;99.90;;;;;;4967725;28;20034;-89
2023/12/12 10:36:17;;;;;;;255.05;34.80;;;7.40;99.90;;;;;;4968561;28;20046;-89
2023/12/12 10:38:44;;;;;;;195.48;31.77;;;7.10;99.90;;;;;;4966332;28;20038;-88
2023/12/12 10:41:21;;;;;;;130.98;27.33;;;7.20;99.90;;;;;;4978364;28;20041;-89
2023/12/12 10:43:47;;;;;;;176.77;34.78;;;7.20;99.90;;;;;;4958689;28;20042;-90
2023/12/12 10:46:16;;;;;;;144.85;30.83;;;7.20;99.90;;;;;;4966809;28;20098;-89
2023/12/12 10:48:48;;;;;;;90.78;27.10;;;7.30;99.90;;;;;;4993141;28;20038;-90
2023/12/12 10:51:17;;;;;;;96.38;27.55;;;7.20;99.90;;;;;;4966429;28;20031;-89
2023/12/12 10:53:45;;;;;;;87.82;25.00;;;7.40;99.90;;;;;;4966058;28;20038;-89
2023/12/12 10:56:13;;;;;;;58.60;23.38;;;7.30;99.90;;;;;;4997210;28;20038;-89
2023/12/12 10:58:43;;;;;;;58.83;25.20;;;7.40;99.90;;;;;;4966953;28;20166;-89
2023/12/12 11:01:14;;;;;;;85.05;31.23;;;7.40;99.90;;;;;;4994846;28;20109;-89
2023/12/12 11:03:43;;;;;;;90.78;32.50;;;7.40;99.90;;;;;;4959790;28;20046;-89
2023/12/12 11:06:09;;;;;;;90.40;29.67;;;7.50;99.90;;;;;;4975415;28;20161;-89
2023/12/12 11:08:35;;;;;;;59.10;26.92;;;7.50;99.90;;;;;;5003716;28;20062;-89
2023/12/12 11:11:06;;;;;;;62.63;26.83;;;7.70;99.90;;;;;;5011624;28;20042;-89
2023/12/12 11:13:34;;;;;;;52.28;24.73;;;7.60;99.90;;;;;;4966273;28;20042;-89
2023/12/12 11:16:03;;;;;;;46.58;23.35;;;7.60;99.90;;;;;;4987313;28;20041;-88
2023/12/12 11:18:29;;;;;;;43.13;22.63;;;7.80;99.90;;;;;;5007166;28;20117;-90
2023/12/12 11:20:55;;;;;;;35.42;20.45;;;7.80;99.90;;;;;;4969198;28;20046;-89
2023/12/12 11:23:46;;;;;;;40.10;22.08;;;8.00;99.90;;;;;;4960579;28;20034;-89
2023/12/12 11:26:16;;;;;;;38.08;20.73;;;7.80;99.90;;;;;;4974624;28;20555;-90
2023/12/12 11:28:42;;;;;;;40.13;21.83;;;8.00;99.90;;;;;;5005343;28;20070;-90
2023/12/12 11:31:08;;;;;;;37.47;21.88;;;8.20;99.90;;;;;;4958403;28;20038;-89
2023/12/12 11:34:06;;;;;;;38.92;22.88;;;8.20;99.90;;;;;;4975050;28;20283;-89
2023/12/12 11:36:55;;;;;;;36.55;22.50;;;8.20;99.90;;;;;;4961220;28;20554;-89
2023/12/12 11:39:29;;;;;;;37.13;21.88;;;8.20;99.90;;;;;;5007797;28;20092;-89
2023/12/12 11:41:56;;;;;;;35.22;22.25;;;8.20;99.90;;;;;;4977061;28;20124;-89
2023/12/12 11:44:22;;;;;;;37.95;23.02;;;7.90;99.90;;;;;;4969390;28;20472;-89
2023/12/12 11:46:50;;;;;;;41.17;23.95;;;8.20;99.90;;;;;;4988628;28;20075;-89
2023/12/12 11:49:23;;;;;;;33.78;21.30;;;8.10;99.90;;;;;;4976463;28;20042;-90
2023/12/12 11:51:51;;;;;;;34.88;22.13;;;8.10;99.90;;;;;;4955233;28;20257;-89
2023/12/12 11:54:22;;;;;;;41.47;23.13;;;8.30;99.90;;;;;;4975008;28;20447;-88
2023/12/12 11:56:54;;;;;;;33.58;22.20;;;8.20;99.90;;;;;;4976772;28;20089;-89
2023/12/12 11:59:22;;;;;;;35.45;23.15;;;8.10;99.90;;;;;;4964657;28;20053;-89
2023/12/12 12:01:51;;;;;;;37.05;22.58;;;8.10;99.90;;;;;;4965597;28;20034;-89
2023/12/12 12:04:17;;;;;;;39.88;25.00;;;8.20;99.90;;;;;;4981188;28;20050;-89
2023/12/12 12:06:50;;;;;;;36.28;23.00;;;8.10;99.90;;;;;;4976969;28;20406;-89
2023/12/12 12:09:16;;;;;;;38.00;23.17;;;8.10;99.90;;;;;;4985375;28;20047;-89
2023/12/12 12:11:47;;;;;;;38.50;23.80;;;8.10;99.90;;;;;;4959252;28;20046;-88
2023/12/12 12:14:16;;;;;;;40.13;23.45;;;8.10;99.90;;;;;;4956502;28;20074;-88
2023/12/12 12:16:42;;;;;;;38.28;22.77;;;8.10;99.90;;;;;;4995337;28;20053;-89
2023/12/12 12:19:27;;;;;;;39.90;23.88;;;8.10;99.90;;;;;;4974735;28;20069;-90
2023/12/12 12:21:52;;;;;;;35.40;23.25;;;8.00;99.90;;;;;;4993052;28;20081;-89
2023/12/12 12:24:18;;;;;;;35.97;23.13;;;8.10;99.90;;;;;;4963692;28;20081;-90
2023/12/12 12:26:44;;;;;;;34.85;22.35;;;8.00;99.90;;;;;;4953671;28;20038;-89
2023/12/12 12:29:10;;;;;;;39.58;23.50;;;8.10;99.90;;;;;;4959544;28;20113;-89
2023/12/12 12:31:38;;;;;;;32.15;22.17;;;7.80;99.90;;;;;;4964540;28;20042;-90
2023/12/12 12:34:19;;;;;;;35.47;22.23;;;7.90;99.90;;;;;;4979185;28;20042;-90
2023/12/12 12:36:48;;;;;;;33.53;22.17;;;7.90;99.90;;;;;;4970908;28;20121;-90
2023/12/12 12:39:16;;;;;;;39.05;24.08;;;7.90;99.90;;;;;;4965905;28;20061;-89
2023/12/12 12:41:48;;;;;;;35.60;22.98;;;8.00;99.90;;;;;;4974286;28;20128;-89